Time,TemperatureF,DewpointF,PressureIn,WindDirection,WindDirectionDegrees,WindSpeedMPH,WindSpeedGustMPH,Humidity,HourlyPrecipIn,Conditions,Clouds,dailyrainin,SoftwareType,DateUTC
2013-11-17 00:06:00,40.3,35.2,-100.00,SW,225,0.0,-999.0,82,-99.99,,,0.00,Acu-Link.com,2013-11-17 05:06:00,
2013-11-17 00:21:00,39.7,34.7,-100.00,SW,225,0.0,-999.0,82,-99.99,,,0.00,Acu-Link.com,2013-11-17 05:21:00,
2013-11-17 00:36:00,40.1,35.7,-100.00,SW,225,0.0,-999.0,84,-99.99,,,0.00,Acu-Link.com,2013-11-17 05:36:00,
2013-11-17 00:51:00,39.9,34.9,-100.00,SW,225,0.0,-999.0,82,-99.99,,,0.00,Acu-Link.com,2013-11-17 05:51:00,
2013-11-17 01:07:00,39.4,34.4,-100.00,SW,225,0.0,-999.0,82,-99.99,,,0.00,Acu-Link.com,2013-11-17 06:07:00,
2013-11-17 01:22:00,40.1,35.7,-100.00,SW,225,0.0,-999.0,84,-99.99,,,0.00,Acu-Link.com,2013-11-17 06:22:00,
2013-11-17 01:37:00,40.5,36.3,-100.00,WSW,247,2.2,-999.0,85,-99.99,,,0.00,Acu-Link.com,2013-11-17 06:37:00,
2013-11-17 01:52:00,39.6,35.7,-100.00,WSW,247,0.0,-999.0,86,-99.99,,,0.00,Acu-Link.com,2013-11-17 06:52:00,
2013-11-17 02:07:00,39.7,36.2,-100.00,West,270,0.0,-999.0,87,-99.99,,,0.00,Acu-Link.com,2013-11-17 07:07:00,
2013-11-17 02:22:00,39.4,35.8,-100.00,West,270,1.1,-999.0,87,-99.99,,,0.00,Acu-Link.com,2013-11-17 07:22:00,
2013-11-17 02:37:00,39.4,36.1,-100.00,West,270,0.0,-999.0,88,-99.99,,,0.00,Acu-Link.com,2013-11-17 07:37:00,
2013-11-17 02:53:00,39.0,35.8,-100.00,West,270,0.0,-999.0,88,-99.99,,,0.00,Acu-Link.com,2013-11-17 07:53:00,
2013-11-17 03:08:00,39.0,36.1,-100.00,West,270,2.2,-999.0,89,-99.99,,,0.00,Acu-Link.com,2013-11-17 08:08:00,
2013-11-17 03:23:00,38.7,35.4,-100.00,West,270,0.0,-999.0,88,-99.99,,,0.00,Acu-Link.com,2013-11-17 08:23:00,
2013-11-17 03:38:00,38.5,35.0,-100.00,West,270,1.6,-999.0,87,-99.99,,,0.00,Acu-Link.com,2013-11-17 08:38:00,
2013-11-17 03:53:00,38.3,34.5,-100.00,West,270,0.0,-999.0,86,-99.99,,,0.00,Acu-Link.com,2013-11-17 08:53:00,
2013-11-17 04:08:00,38.1,34.3,-100.00,NNW,337,0.0,-999.0,86,-99.99,,,0.00,Acu-Link.com,2013-11-17 09:08:00,
2013-11-17 04:24:00,38.3,34.5,-100.00,West,270,2.2,-999.0,86,-99.99,,,0.00,Acu-Link.com,2013-11-17 09:24:00,
2013-11-17 04:39:00,38.3,34.5,-100.00,West,270,0.0,-999.0,86,-99.99,,,0.00,Acu-Link.com,2013-11-17 09:39:00,
2013-11-17 04:54:00,38.7,34.8,-100.00,WNW,292,0.0,-999.0,86,-99.99,,,0.00,Acu-Link.com,2013-11-17 09:54:00,
2013-11-17 05:10:00,39.6,35.4,-100.00,West,270,0.0,-999.0,85,-99.99,,,0.00,Acu-Link.com,2013-11-17 10:10:00,
2013-11-17 05:25:00,40.3,35.5,-100.00,West,270,0.0,-999.0,83,-99.99,,,0.00,Acu-Link.com,2013-11-17 10:25:00,
2013-11-17 05:40:00,40.6,35.6,-100.00,West,270,0.0,-999.0,82,-99.99,,,0.00,Acu-Link.com,2013-11-17 10:40:00,
2013-11-17 05:55:00,41.0,35.6,-100.00,West,270,0.0,-999.0,81,-99.99,,,0.00,Acu-Link.com,2013-11-17 10:55:00,
2013-11-17 06:10:00,41.7,37.5,-100.00,SW,225,0.0,-999.0,85,-99.99,,,0.00,Acu-Link.com,2013-11-17 11:10:00,
2013-11-17 06:25:00,42.1,37.6,-100.00,West,270,0.0,-999.0,84,-99.99,,,0.00,Acu-Link.com,2013-11-17 11:25:00,
2013-11-17 06:41:00,42.3,37.5,-100.00,SW,225,0.0,-999.0,83,-99.99,,,0.00,Acu-Link.com,2013-11-17 11:41:00,
2013-11-17 06:56:00,42.3,37.2,-100.00,NNW,337,2.2,-999.0,82,-99.99,,,0.00,Acu-Link.com,2013-11-17 11:56:00,
2013-11-17 07:11:00,42.6,37.5,-100.00,West,270,0.0,-999.0,82,-99.99,,,0.00,Acu-Link.com,2013-11-17 12:11:00,
2013-11-17 07:26:00,43.2,37.7,-100.00,West,270,0.0,-999.0,81,-99.99,,,0.00,Acu-Link.com,2013-11-17 12:26:00,
2013-11-17 07:41:00,44.1,38.3,-100.00,NE,45,0.0,-999.0,80,-99.99,,,0.00,Acu-Link.com,2013-11-17 12:41:00,
2013-11-17 07:56:00,45.1,38.7,-100.00,NNW,337,1.1,-999.0,78,-99.99,,,0.00,Acu-Link.com,2013-11-17 12:56:00,
2013-11-17 08:12:00,45.9,39.1,-100.00,NNW,337,0.0,-999.0,77,-99.99,,,0.00,Acu-Link.com,2013-11-17 13:12:00,
2013-11-17 08:27:00,46.2,39.4,-100.00,NNW,337,1.1,-999.0,77,-99.99,,,0.00,Acu-Link.com,2013-11-17 13:27:00,
2013-11-17 08:42:00,47.5,42.6,-100.00,ESE,112,4.3,-999.0,83,-99.99,,,0.00,Acu-Link.com,2013-11-17 13:42:00,
2013-11-17 08:57:00,48.0,42.8,-100.00,South,180,3.8,-999.0,82,-99.99,,,0.00,Acu-Link.com,2013-11-17 13:57:00,
2013-11-17 09:13:00,48.0,41.2,-100.00,NNW,337,2.2,-999.0,77,-99.99,,,0.00,Acu-Link.com,2013-11-17 14:13:00,
2013-11-17 09:28:00,48.7,43.5,-100.00,ESE,112,1.6,-999.0,82,-99.99,,,0.00,Acu-Link.com,2013-11-17 14:28:00,
2013-11-17 09:43:00,49.5,43.9,-100.00,East,90,2.7,-999.0,81,-99.99,,,0.00,Acu-Link.com,2013-11-17 14:43:00,
2013-11-17 09:58:00,49.6,41.3,-100.00,North,0,2.2,-999.0,73,-99.99,,,0.00,Acu-Link.com,2013-11-17 14:58:00,
2013-11-17 10:13:00,50.9,42.2,-100.00,North,0,0.0,-999.0,72,-99.99,,,0.00,Acu-Link.com,2013-11-17 15:13:00,
2013-11-17 10:28:00,52.0,44.3,-100.00,ESE,112,3.8,-999.0,75,-99.99,,,0.00,Acu-Link.com,2013-11-17 15:28:00,
2013-11-17 10:44:00,52.0,45.0,-100.00,ESE,112,2.7,-999.0,77,-99.99,,,0.00,Acu-Link.com,2013-11-17 15:44:00,
2013-11-17 10:59:00,52.5,45.5,-100.00,East,90,3.1,-999.0,77,-99.99,,,0.00,Acu-Link.com,2013-11-17 15:59:00,
2013-11-17 11:14:00,54.1,46.4,-100.00,ESE,112,4.3,-999.0,75,-99.99,,,0.00,Acu-Link.com,2013-11-17 16:14:00,
2013-11-17 11:29:00,54.3,46.6,-100.00,SSE,157,3.8,-999.0,75,-99.99,,,0.00,Acu-Link.com,2013-11-17 16:29:00,
2013-11-17 11:45:00,54.3,46.2,-100.00,ESE,112,3.8,-999.0,74,-99.99,,,0.00,Acu-Link.com,2013-11-17 16:45:00,
2013-11-17 12:00:00,55.2,46.7,-100.00,NE,45,1.6,-999.0,73,-99.99,,,0.00,Acu-Link.com,2013-11-17 17:00:00,
2013-11-17 12:15:00,56.1,47.2,-100.00,ESE,112,4.7,-999.0,72,-99.99,,,0.00,Acu-Link.com,2013-11-17 17:15:00,
2013-11-17 12:30:00,56.3,47.0,-100.00,NNE,22,0.0,-999.0,71,-99.99,,,0.00,Acu-Link.com,2013-11-17 17:30:00,
2013-11-17 12:46:00,58.1,47.6,-100.00,South,180,1.1,-999.0,68,-99.99,,,0.00,Acu-Link.com,2013-11-17 17:46:00,
2013-11-17 13:01:00,57.7,47.6,-100.00,ESE,112,4.3,-999.0,69,-99.99,,,0.00,Acu-Link.com,2013-11-17 18:01:00,
2013-11-17 13:16:00,58.6,48.1,-100.00,East,90,2.7,-999.0,68,-99.99,,,0.00,Acu-Link.com,2013-11-17 18:16:00,
2013-11-17 13:31:00,59.4,48.8,-100.00,ESE,112,2.7,-999.0,68,-99.99,,,0.00,Acu-Link.com,2013-11-17 18:31:00,
2013-11-17 13:46:00,58.8,48.7,-100.00,ENE,67,1.6,-999.0,69,-99.99,,,0.00,Acu-Link.com,2013-11-17 18:46:00,
2013-11-17 14:01:00,59.7,49.1,-100.00,NNE,22,1.6,-999.0,68,-99.99,,,0.00,Acu-Link.com,2013-11-17 19:01:00,
2013-11-17 14:17:00,59.4,48.8,-100.00,ENE,67,2.7,-999.0,68,-99.99,,,0.00,Acu-Link.com,2013-11-17 19:17:00,
2013-11-17 14:32:00,58.8,49.1,-100.00,NNE,22,0.0,-999.0,70,-99.99,,,0.00,Acu-Link.com,2013-11-17 19:32:00,
2013-11-17 14:47:00,58.6,49.3,-100.00,NNE,22,2.2,-999.0,71,-99.99,,,0.00,Acu-Link.com,2013-11-17 19:47:00,
2013-11-17 15:02:00,58.1,48.7,-100.00,SSE,157,4.3,-999.0,71,-99.99,,,0.00,Acu-Link.com,2013-11-17 20:02:00,
2013-11-17 15:17:00,57.2,48.6,-100.00,SE,135,6.7,-999.0,73,-99.99,,,0.00,Acu-Link.com,2013-11-17 20:17:00,
2013-11-17 15:32:00,57.0,48.5,-100.00,ESE,112,2.7,-999.0,73,-99.99,,,0.00,Acu-Link.com,2013-11-17 20:32:00,
2013-11-17 15:48:00,56.7,48.8,-100.00,ESE,112,4.7,-999.0,75,-99.99,,,0.00,Acu-Link.com,2013-11-17 20:48:00,
2013-11-17 16:03:00,54.7,49.6,-100.00,ESE,112,3.8,-999.0,83,-99.99,,,0.00,Acu-Link.com,2013-11-17 21:03:00,
2013-11-17 16:18:00,54.0,50.5,-100.00,ESE,112,2.2,-999.0,88,-99.99,,,0.00,Acu-Link.com,2013-11-17 21:18:00,
2013-11-17 16:33:00,54.0,51.4,-100.00,SE,135,2.7,-999.0,91,-99.99,,,0.00,Acu-Link.com,2013-11-17 21:33:00,
2013-11-17 16:49:00,54.3,52.3,-100.00,SSE,157,1.6,-999.0,93,-99.99,,,0.01,Acu-Link.com,2013-11-17 21:49:00,
2013-11-17 17:04:00,54.5,53.1,-100.00,ESE,112,2.7,-999.0,95,-99.99,,,0.02,Acu-Link.com,2013-11-17 22:04:00,
2013-11-17 17:19:00,54.7,53.8,-100.00,SSE,157,4.7,-999.0,97,-99.99,,,0.02,Acu-Link.com,2013-11-17 22:19:00,
2013-11-17 17:35:00,54.5,53.9,-100.00,ESE,112,3.8,-999.0,98,-99.99,,,0.05,Acu-Link.com,2013-11-17 22:35:00,
2013-11-17 17:50:00,54.3,53.8,-100.00,ESE,112,5.8,-999.0,98,-99.99,,,0.05,Acu-Link.com,2013-11-17 22:50:00,
2013-11-17 18:05:00,54.0,53.4,-100.00,SSE,157,6.7,-999.0,98,-99.99,,,0.05,Acu-Link.com,2013-11-17 23:05:00,
2013-11-17 18:20:00,54.0,53.4,-100.00,SE,135,6.3,-999.0,98,-99.99,,,0.05,Acu-Link.com,2013-11-17 23:20:00,
2013-11-17 18:35:00,53.8,53.2,-100.00,SSE,157,7.4,-999.0,98,-99.99,,,0.06,Acu-Link.com,2013-11-17 23:35:00,
2013-11-17 18:51:00,53.8,53.2,-100.00,East,90,3.8,-999.0,98,-99.99,,,0.06,Acu-Link.com,2013-11-17 23:51:00,
2013-11-17 19:06:00,53.8,53.2,-100.00,ESE,112,5.1,-999.0,98,-99.99,,,0.06,Acu-Link.com,2013-11-18 00:06:00,
2013-11-17 19:21:00,53.8,53.5,-100.00,SE,135,2.7,-999.0,99,-99.99,,,0.06,Acu-Link.com,2013-11-18 00:21:00,
2013-11-17 19:36:00,54.0,53.7,-100.00,ENE,67,3.8,-999.0,99,-99.99,,,0.06,Acu-Link.com,2013-11-18 00:36:00,
2013-11-17 19:51:00,54.1,53.9,-100.00,SSE,157,3.1,-999.0,99,-99.99,,,0.06,Acu-Link.com,2013-11-18 00:51:00,
2013-11-17 20:06:00,54.3,54.0,-100.00,East,90,4.7,-999.0,99,-99.99,,,0.06,Acu-Link.com,2013-11-18 01:06:00,
2013-11-17 20:26:00,54.5,54.2,-100.00,SSE,157,1.6,-999.0,99,-99.99,,,0.06,Acu-Link.com,2013-11-18 01:26:00,
2013-11-17 20:41:00,54.7,54.4,-100.00,ESE,112,2.2,-999.0,99,-99.99,,,0.06,Acu-Link.com,2013-11-18 01:41:00,
2013-11-17 20:56:00,54.9,54.6,-100.00,ESE,112,4.7,-999.0,99,-99.99,,,0.06,Acu-Link.com,2013-11-18 01:56:00,
2013-11-17 21:12:00,54.9,54.6,-100.00,SSE,157,4.3,-999.0,99,-99.99,,,0.06,Acu-Link.com,2013-11-18 02:12:00,
2013-11-17 21:27:00,55.0,54.8,-100.00,SSE,157,6.3,-999.0,99,-99.99,,,0.06,Acu-Link.com,2013-11-18 02:27:00,
2013-11-17 21:42:00,55.0,54.8,-100.00,ESE,112,5.1,-999.0,99,-99.99,,,0.07,Acu-Link.com,2013-11-18 02:42:00,
2013-11-17 21:57:00,55.0,54.8,-100.00,ESE,112,3.8,-999.0,99,-99.99,,,0.07,Acu-Link.com,2013-11-18 02:57:00,
2013-11-17 22:13:00,55.2,54.9,-100.00,ESE,112,3.1,-999.0,99,-99.99,,,0.07,Acu-Link.com,2013-11-18 03:13:00,
2013-11-17 22:28:00,55.4,55.1,-100.00,ESE,112,4.3,-999.0,99,-99.99,,,0.07,Acu-Link.com,2013-11-18 03:28:00,
2013-11-17 22:43:00,55.9,55.7,-100.00,ESE,112,2.7,-999.0,99,-99.99,,,0.07,Acu-Link.com,2013-11-18 03:43:00,
2013-11-17 22:58:00,56.7,56.4,-100.00,SSE,157,2.2,-999.0,99,-99.99,,,0.07,Acu-Link.com,2013-11-18 03:58:00,
2013-11-17 23:13:00,57.2,56.9,-100.00,SE,135,3.1,-999.0,99,-99.99,,,0.07,Acu-Link.com,2013-11-18 04:13:00,
2013-11-17 23:28:00,57.6,57.3,-100.00,SSE,157,4.7,-999.0,99,-99.99,,,0.07,Acu-Link.com,2013-11-18 04:28:00,
2013-11-17 23:44:00,57.9,57.6,-100.00,ESE,112,4.7,-999.0,99,-99.99,,,0.07,Acu-Link.com,2013-11-18 04:44:00,
2013-11-17 23:59:00,58.1,57.8,-100.00,SSW,202,4.7,-999.0,99,-99.99,,,0.07,Acu-Link.com,2013-11-18 04:59:00,